sensor_id;sensor_type;location;lat;lon;timestamp;temperature;humidity
78448;SHT31;67742;51.972;5.682;2023-04-03T06:46:31;7.7;50.4
78448;SHT31;67742;51.972;5.682;2023-04-03T06:49:02;7.3;51.7
78448;SHT31;67742;51.972;5.682;2023-04-03T06:51:36;7.1;52.2
78448;SHT31;67742;51.972;5.682;2023-04-03T06:54:06;7.0;52.7
78448;SHT31;67742;51.972;5.682;2023-04-03T06:56:36;6.9;53.1
78448;SHT31;67742;51.972;5.682;2023-04-03T06:59:05;6.8;53.6
78448;SHT31;67742;51.972;5.682;2023-04-03T07:01:36;6.7;53.3
78448;SHT31;67742;51.972;5.682;2023-04-03T07:04:07;6.6;53.8
78448;SHT31;67742;51.972;5.682;2023-04-03T07:06:37;6.5;54.5
78448;SHT31;67742;51.972;5.682;2023-04-03T07:09:08;6.4;54.7
78448;SHT31;67742;51.972;5.682;2023-04-03T07:11:39;6.3;55.2
78448;SHT31;67742;51.972;5.682;2023-04-03T07:14:08;6.3;55.7
78448;SHT31;67742;51.972;5.682;2023-04-03T07:16:38;6.3;55.4
78448;SHT31;67742;51.972;5.682;2023-04-03T07:19:07;6.2;55.2
78448;SHT31;67742;51.972;5.682;2023-04-03T07:21:38;6.2;55.6
78448;SHT31;67742;51.972;5.682;2023-04-03T07:24:09;6.2;55.2
78448;SHT31;67742;51.972;5.682;2023-04-03T07:26:38;6.2;55.2
78448;SHT31;67742;51.972;5.682;2023-04-03T07:29:08;6.2;55.2
78448;SHT31;67742;51.972;5.682;2023-04-03T07:31:38;6.1;55.7
78448;SHT31;67742;51.972;5.682;2023-04-03T07:34:10;6.1;55.8
78448;SHT31;67742;51.972;5.682;2023-04-03T07:36:40;6.1;55.3
78448;SHT31;67742;51.972;5.682;2023-04-03T07:39:10;6.2;55.0
78448;SHT31;67742;51.972;5.682;2023-04-03T07:41:40;6.2;55.4
78448;SHT31;67742;51.972;5.682;2023-04-03T07:44:09;6.2;55.6
78448;SHT31;67742;51.972;5.682;2023-04-03T07:46:38;6.2;54.6
78448;SHT31;67742;51.972;5.682;2023-04-03T07:49:08;6.3;54.9
78448;SHT31;67742;51.972;5.682;2023-04-03T07:51:39;6.3;54.9
78448;SHT31;67742;51.972;5.682;2023-04-03T07:54:09;6.4;54.7
78448;SHT31;67742;51.972;5.682;2023-04-03T07:56:39;6.4;53.6
78448;SHT31;67742;51.972;5.682;2023-04-03T07:59:10;6.4;53.0
78448;SHT31;67742;51.972;5.682;2023-04-03T08:01:40;6.5;53.8
78448;SHT31;67742;51.972;5.682;2023-04-03T08:04:09;6.5;51.7
78448;SHT31;67742;51.972;5.682;2023-04-03T08:06:39;6.6;51.7
78448;SHT31;67742;51.972;5.682;2023-04-03T08:09:09;6.6;50.8
78448;SHT31;67742;51.972;5.682;2023-04-03T08:11:42;6.6;50.5
78448;SHT31;67742;51.972;5.682;2023-04-03T08:14:12;6.7;48.5
78448;SHT31;67742;51.972;5.682;2023-04-03T08:16:47;6.7;50.0
78448;SHT31;67742;51.972;5.682;2023-04-03T08:19:17;6.7;48.5
78448;SHT31;67742;51.972;5.682;2023-04-03T08:21:47;6.8;49.0
78448;SHT31;67742;51.972;5.682;2023-04-03T08:24:18;6.8;49.2
78448;SHT31;67742;51.972;5.682;2023-04-03T08:26:48;6.9;47.2
78448;SHT31;67742;51.972;5.682;2023-04-03T08:29:17;6.9;46.4
78448;SHT31;67742;51.972;5.682;2023-04-03T08:31:48;6.9;46.2
78448;SHT31;67742;51.972;5.682;2023-04-03T08:34:19;7.0;44.1
78448;SHT31;67742;51.972;5.682;2023-04-03T08:36:51;7.0;43.2
78448;SHT31;67742;51.972;5.682;2023-04-03T08:39:22;7.0;43.0
78448;SHT31;67742;51.972;5.682;2023-04-03T08:41:55;7.1;42.3
78448;SHT31;67742;51.972;5.682;2023-04-03T08:44:38;7.1;42.2
78448;SHT31;67742;51.972;5.682;2023-04-03T08:47:20;7.2;39.5
78448;SHT31;67742;51.972;5.682;2023-04-03T08:49:54;7.2;38.5
78448;SHT31;67742;51.972;5.682;2023-04-03T08:52:34;7.2;40.0
78448;SHT31;67742;51.972;5.682;2023-04-03T08:55:07;7.3;38.6
78448;SHT31;67742;51.972;5.682;2023-04-03T08:57:44;7.4;37.7
78448;SHT31;67742;51.972;5.682;2023-04-03T09:00:20;7.4;35.3
78448;SHT31;67742;51.972;5.682;2023-04-03T09:02:51;7.4;36.2
78448;SHT31;67742;51.972;5.682;2023-04-03T09:05:32;7.5;35.8
78448;SHT31;67742;51.972;5.682;2023-04-03T09:08:18;7.5;35.3
78448;SHT31;67742;51.972;5.682;2023-04-03T09:10:55;7.6;34.9
78448;SHT31;67742;51.972;5.682;2023-04-03T09:13:32;7.6;34.1
78448;SHT31;67742;51.972;5.682;2023-04-03T09:16:19;7.7;34.4
78448;SHT31;67742;51.972;5.682;2023-04-03T09:19:00;7.7;32.8
78448;SHT31;67742;51.972;5.682;2023-04-03T09:21:37;7.7;33.3
78448;SHT31;67742;51.972;5.682;2023-04-03T09:24:12;7.8;31.4
78448;SHT31;67742;51.972;5.682;2023-04-03T09:26:48;7.8;30.9
78448;SHT31;67742;51.972;5.682;2023-04-03T09:29:22;7.8;30.9
78448;SHT31;67742;51.972;5.682;2023-04-03T09:31:56;7.9;30.9
78448;SHT31;67742;51.972;5.682;2023-04-03T09:34:30;7.9;30.0
78448;SHT31;67742;51.972;5.682;2023-04-03T09:37:03;7.9;30.4
78448;SHT31;67742;51.972;5.682;2023-04-03T09:39:50;7.9;30.9
78448;SHT31;67742;51.972;5.682;2023-04-03T09:42:23;8.0;32.1
78448;SHT31;67742;51.972;5.682;2023-04-03T09:44:56;8.1;31.7
78448;SHT31;67742;51.972;5.682;2023-04-03T09:47:28;8.1;32.0
78448;SHT31;67742;51.972;5.682;2023-04-03T09:50:21;8.2;31.3
78448;SHT31;67742;51.972;5.682;2023-04-03T09:52:52;8.3;30.2
78448;SHT31;67742;51.972;5.682;2023-04-03T09:55:23;8.3;30.1
78448;SHT31;67742;51.972;5.682;2023-04-03T09:57:57;8.4;30.0
78448;SHT31;67742;51.972;5.682;2023-04-03T10:00:31;8.4;29.9
78448;SHT31;67742;51.972;5.682;2023-04-03T10:03:04;8.5;29.9
78448;SHT31;67742;51.972;5.682;2023-04-03T10:05:37;8.6;30.1
78448;SHT31;67742;51.972;5.682;2023-04-03T10:08:19;8.6;30.3
78448;SHT31;67742;51.972;5.682;2023-04-03T10:10:48;8.7;30.5
78448;SHT31;67742;51.972;5.682;2023-04-03T10:13:19;8.8;31.0
78448;SHT31;67742;51.972;5.682;2023-04-03T10:15:56;8.9;32.6
78448;SHT31;67742;51.972;5.682;2023-04-03T10:18:36;9.0;31.3
78448;SHT31;67742;51.972;5.682;2023-04-03T10:21:12;9.1;31.4
78448;SHT31;67742;51.972;5.682;2023-04-03T10:23:52;9.3;30.5
78448;SHT31;67742;51.972;5.682;2023-04-03T10:26:32;9.4;31.3
78448;SHT31;67742;51.972;5.682;2023-04-03T10:29:15;9.5;30.5
78448;SHT31;67742;51.972;5.682;2023-04-03T10:31:53;9.6;31.3
78448;SHT31;67742;51.972;5.682;2023-04-03T10:34:29;9.7;33.2
78448;SHT31;67742;51.972;5.682;2023-04-03T10:37:08;9.8;30.3
78448;SHT31;67742;51.972;5.682;2023-04-03T10:39:50;9.8;31.0
78448;SHT31;67742;51.972;5.682;2023-04-03T10:42:27;9.9;31.6
78448;SHT31;67742;51.972;5.682;2023-04-03T10:45:06;10.0;30.8
78448;SHT31;67742;51.972;5.682;2023-04-03T10:47:46;10.1;31.3
78448;SHT31;67742;51.972;5.682;2023-04-03T10:50:31;10.2;30.5
78448;SHT31;67742;51.972;5.682;2023-04-03T10:53:14;10.3;32.2
78448;SHT31;67742;51.972;5.682;2023-04-03T10:55:51;10.4;31.8
